createdAt,value
2017-07-09T00:01:54.227Z,2.70
2017-07-09T00:04:21.989Z,2.70
2017-07-09T00:06:49.759Z,3.10
2017-07-09T00:09:17.619Z,3.50
2017-07-09T00:11:45.380Z,2.90
2017-07-09T00:14:13.263Z,3.00
2017-07-09T00:16:41.134Z,3.67
2017-07-09T00:19:08.997Z,4.00
2017-07-09T00:21:36.853Z,3.40
2017-07-09T00:24:04.723Z,3.37
2017-07-09T00:26:32.597Z,3.00
2017-07-09T00:29:00.461Z,3.83
2017-07-09T00:31:28.214Z,3.80
2017-07-09T00:33:55.922Z,3.37
2017-07-09T00:36:24.495Z,3.80
2017-07-09T00:38:52.992Z,3.00
2017-07-09T00:41:20.804Z,2.53
2017-07-09T00:43:48.503Z,3.47
2017-07-09T00:46:17.050Z,3.30
2017-07-09T00:48:44.918Z,3.80
2017-07-09T00:51:12.683Z,3.07
2017-07-09T00:53:40.557Z,3.00
2017-07-09T00:56:08.312Z,3.13
2017-07-09T00:58:36.086Z,3.60
2017-07-09T01:01:03.959Z,3.50
2017-07-09T01:03:31.827Z,4.13
2017-07-09T01:05:59.581Z,5.60
2017-07-09T01:08:27.375Z,4.57
2017-07-09T01:10:55.844Z,4.00
2017-07-09T01:13:23.584Z,4.27
2017-07-09T01:15:51.454Z,4.60
2017-07-09T01:18:19.147Z,3.90
2017-07-09T01:20:47.703Z,10.73
2017-07-09T01:23:15.562Z,6.90
2017-07-09T01:25:43.327Z,6.07
2017-07-09T01:28:10.987Z,6.23
2017-07-09T01:30:38.781Z,5.40
2017-07-09T01:33:06.420Z,5.60
2017-07-09T01:35:34.056Z,4.93
2017-07-09T01:38:01.733Z,4.43
2017-07-09T01:40:29.402Z,4.30
2017-07-09T01:42:57.166Z,4.27
2017-07-09T01:45:24.930Z,4.33
2017-07-09T01:47:52.620Z,3.63
2017-07-09T01:50:20.459Z,3.80
2017-07-09T01:52:48.222Z,3.47
2017-07-09T01:55:15.987Z,4.13
2017-07-09T01:57:43.853Z,3.00
2017-07-09T02:00:11.536Z,3.47
2017-07-09T02:02:39.168Z,3.47
2017-07-09T02:05:06.831Z,3.03
2017-07-09T02:07:34.602Z,3.30
2017-07-09T02:10:02.369Z,3.20
2017-07-09T02:12:30.154Z,3.27
2017-07-09T02:14:57.817Z,3.40
2017-07-09T02:17:25.559Z,3.60
2017-07-09T02:19:53.232Z,3.00
2017-07-09T02:22:20.899Z,2.27
2017-07-09T02:24:48.565Z,2.23
2017-07-09T02:27:16.323Z,3.23
2017-07-09T02:29:44.070Z,3.73
2017-07-09T02:32:11.937Z,3.23
2017-07-09T02:34:39.625Z,3.00
2017-07-09T02:37:07.364Z,2.40
2017-07-09T02:39:35.234Z,3.30
2017-07-09T02:42:02.995Z,2.33
2017-07-09T02:44:30.659Z,3.07
2017-07-09T02:46:58.320Z,2.90
2017-07-09T02:49:26.080Z,3.60
2017-07-09T02:51:53.740Z,2.80
2017-07-09T02:54:21.371Z,2.90
2017-07-09T02:56:49.171Z,2.40
2017-07-09T02:59:16.933Z,3.27
2017-07-09T03:01:44.700Z,3.63
2017-07-09T03:04:12.465Z,3.60
2017-07-09T03:06:40.149Z,4.27
2017-07-09T03:09:07.993Z,3.10
2017-07-09T03:11:35.687Z,3.73
2017-07-09T03:14:04.239Z,3.13
2017-07-09T03:16:32.003Z,2.83
2017-07-09T03:18:59.657Z,3.50
2017-07-09T03:21:27.428Z,3.33
2017-07-09T03:23:55.116Z,3.33
2017-07-09T03:26:22.956Z,3.27
2017-07-09T03:28:50.723Z,3.40
2017-07-09T03:31:18.588Z,2.87
2017-07-09T03:33:46.353Z,2.83
2017-07-09T03:36:14.117Z,2.90
2017-07-09T03:38:41.780Z,2.70
2017-07-09T03:41:09.459Z,3.00
2017-07-09T03:43:37.307Z,2.67
2017-07-09T03:46:05.073Z,2.73
2017-07-09T03:48:32.730Z,2.40
2017-07-09T03:51:00.498Z,2.63
2017-07-09T03:53:28.122Z,3.27
2017-07-09T03:55:55.922Z,3.20
2017-07-09T03:58:23.685Z,2.27
2017-07-09T04:00:51.555Z,2.90
2017-07-09T04:03:19.320Z,3.00
2017-07-09T04:05:47.083Z,3.27
2017-07-09T04:08:14.847Z,3.17
2017-07-09T04:10:42.613Z,3.80
2017-07-09T04:13:10.284Z,3.70
2017-07-09T04:15:38.038Z,3.43
2017-07-09T04:18:05.902Z,2.90
2017-07-09T04:20:33.668Z,4.00
2017-07-09T04:23:01.432Z,3.00
2017-07-09T04:25:29.101Z,3.10
2017-07-09T04:27:56.726Z,3.93
2017-07-09T04:30:24.452Z,3.70
2017-07-09T04:32:52.915Z,3.23
2017-07-09T04:35:20.746Z,3.60
2017-07-09T04:37:48.453Z,3.80
2017-07-09T04:40:16.189Z,3.80
2017-07-09T04:42:43.958Z,3.37
2017-07-09T04:45:11.721Z,2.47
2017-07-09T04:47:39.486Z,4.13
2017-07-09T04:50:07.248Z,3.50
2017-07-09T04:52:34.931Z,3.20
2017-07-09T04:55:02.674Z,3.40
2017-07-09T04:57:30.303Z,4.47
2017-07-09T04:59:58.001Z,2.97
2017-07-09T05:02:25.761Z,3.37
2017-07-09T05:04:53.449Z,2.90
2017-07-09T05:07:21.190Z,2.87
2017-07-09T05:09:48.977Z,3.00
2017-07-09T05:12:16.714Z,2.63
2017-07-09T05:14:44.395Z,2.90
2017-07-09T05:17:12.174Z,2.00
2017-07-09T05:19:40.009Z,2.70
2017-07-09T05:22:07.771Z,1.90
2017-07-09T05:24:35.536Z,2.13
2017-07-09T05:27:03.405Z,1.73
2017-07-09T05:29:31.172Z,2.07
2017-07-09T05:31:58.808Z,1.40
2017-07-09T05:34:26.517Z,2.00
2017-07-09T05:36:54.147Z,1.80
2017-07-09T05:39:21.922Z,1.83
2017-07-09T05:41:49.680Z,1.67
2017-07-09T05:44:17.445Z,1.67
2017-07-09T05:46:45.211Z,1.97
2017-07-09T05:49:12.980Z,1.80
2017-07-09T05:51:40.661Z,1.90
2017-07-09T05:54:08.399Z,2.27
2017-07-09T05:56:36.164Z,1.60
2017-07-09T05:59:03.790Z,1.80
2017-07-09T06:01:31.593Z,1.77
2017-07-09T06:03:59.357Z,1.80
2017-07-09T06:06:27.121Z,1.33
2017-07-09T06:08:54.884Z,2.27
2017-07-09T06:11:22.567Z,1.90
2017-07-09T06:13:50.417Z,1.77
2017-07-09T06:16:18.047Z,1.50
2017-07-09T06:18:45.708Z,1.80
2017-07-09T06:21:13.500Z,1.40
2017-07-09T06:23:41.264Z,1.43
2017-07-09T06:26:09.032Z,1.70
2017-07-09T06:28:36.723Z,2.10
2017-07-09T06:31:05.275Z,1.70
2017-07-09T06:33:33.368Z,1.50
2017-07-09T06:36:01.217Z,1.63
2017-07-09T06:38:28.847Z,1.27
2017-07-09T06:40:56.569Z,2.53
2017-07-09T06:43:25.006Z,1.30
2017-07-09T06:45:52.696Z,1.20
2017-07-09T06:48:20.545Z,1.20
2017-07-09T06:50:48.229Z,1.20
2017-07-09T06:53:16.074Z,1.70
2017-07-09T06:55:43.756Z,1.30
2017-07-09T06:58:11.499Z,1.53
2017-07-09T07:00:39.181Z,1.30
2017-07-09T07:03:06.928Z,1.50
2017-07-09T07:05:34.596Z,1.23
2017-07-09T07:08:02.272Z,1.13
2017-07-09T07:10:29.902Z,1.40
2017-07-09T07:12:57.565Z,1.67
2017-07-09T07:15:25.266Z,1.37
2017-07-09T07:17:53.054Z,1.70
2017-07-09T07:20:20.875Z,1.50
2017-07-09T07:22:48.713Z,1.27
2017-07-09T07:25:16.395Z,1.20
2017-07-09T07:27:44.268Z,1.30
2017-07-09T07:30:12.043Z,1.77
2017-07-09T07:32:39.905Z,1.10
2017-07-09T07:35:07.773Z,1.37
2017-07-09T07:37:35.566Z,1.47
2017-07-09T07:40:04.230Z,0.90
2017-07-09T07:42:31.975Z,1.27
2017-07-09T07:44:59.841Z,1.17
2017-07-09T07:47:27.578Z,1.30
2017-07-09T07:49:55.385Z,1.50
2017-07-09T07:52:23.251Z,1.40
2017-07-09T07:54:51.056Z,0.90
2017-07-09T07:57:18.999Z,1.07
2017-07-09T07:59:47.659Z,1.20
2017-07-09T08:02:15.543Z,1.30
2017-07-09T08:04:43.283Z,1.17
2017-07-09T08:07:11.171Z,1.73
2017-07-09T08:09:39.040Z,1.43
2017-07-09T08:12:06.905Z,1.00
2017-07-09T08:14:34.768Z,1.30
2017-07-09T08:17:02.739Z,1.40
2017-07-09T08:19:30.605Z,1.30
2017-07-09T08:21:58.476Z,1.20
2017-07-09T08:24:26.291Z,1.40
2017-07-09T08:26:54.187Z,1.17
2017-07-09T08:29:22.007Z,1.10
2017-07-09T08:31:49.823Z,1.10
2017-07-09T08:34:17.688Z,1.03
2017-07-09T08:36:45.447Z,1.10
2017-07-09T08:39:13.330Z,1.10
2017-07-09T08:41:41.200Z,1.00
2017-07-09T08:44:09.033Z,1.20
2017-07-09T08:46:36.936Z,1.10
2017-07-09T08:49:04.800Z,1.10
2017-07-09T08:51:32.662Z,0.90
2017-07-09T08:54:00.459Z,1.27
2017-07-09T08:56:28.923Z,1.10
2017-07-09T08:58:57.533Z,1.10
2017-07-09T09:01:25.325Z,1.13
2017-07-09T09:03:53.230Z,1.30
2017-07-09T09:06:21.093Z,1.30
2017-07-09T09:08:48.951Z,1.00
2017-07-09T09:11:16.813Z,0.90
2017-07-09T09:13:44.575Z,1.53
2017-07-09T09:16:12.445Z,1.00
2017-07-09T09:18:40.310Z,0.90
2017-07-09T09:21:08.172Z,1.00
2017-07-09T09:23:35.949Z,1.00
2017-07-09T09:26:03.818Z,0.90
2017-07-09T09:28:31.690Z,1.27
2017-07-09T09:30:59.656Z,0.97
2017-07-09T09:33:27.495Z,1.03
2017-07-09T09:35:55.396Z,0.80
2017-07-09T09:38:23.264Z,0.80
2017-07-09T09:40:51.192Z,1.00
2017-07-09T09:43:19.100Z,1.00
2017-07-09T09:45:47.977Z,0.90
2017-07-09T09:48:16.509Z,1.00
2017-07-09T09:50:44.776Z,1.00
2017-07-09T09:53:12.922Z,0.93
2017-07-09T09:55:40.782Z,1.30
2017-07-09T09:58:08.551Z,0.90
2017-07-09T10:00:37.113Z,1.00
2017-07-09T10:03:04.987Z,1.10
2017-07-09T10:05:32.786Z,0.90
2017-07-09T10:08:01.441Z,1.10
2017-07-09T10:10:29.280Z,1.17
2017-07-09T10:12:56.982Z,1.10
2017-07-09T10:15:24.824Z,0.93
2017-07-09T10:17:52.538Z,1.20
2017-07-09T10:20:20.378Z,1.30
2017-07-09T10:22:48.140Z,1.00
2017-07-09T10:25:15.902Z,0.90
2017-07-09T10:27:43.772Z,1.20
2017-07-09T10:30:11.618Z,0.80
2017-07-09T10:32:39.438Z,0.90
2017-07-09T10:35:07.142Z,1.13
2017-07-09T10:37:35.024Z,1.00
2017-07-09T10:40:02.893Z,0.90
2017-07-09T10:42:30.761Z,0.80
2017-07-09T10:44:58.550Z,1.00
2017-07-09T10:47:26.392Z,1.00
2017-07-09T10:49:54.253Z,1.27
2017-07-09T10:52:22.122Z,1.00
2017-07-09T10:54:49.917Z,1.30
2017-07-09T10:57:17.695Z,0.80
2017-07-09T10:59:45.448Z,1.20
2017-07-09T11:02:13.174Z,0.80
2017-07-09T11:04:41.051Z,0.97
2017-07-09T11:07:08.921Z,0.83
2017-07-09T11:09:36.785Z,1.33
2017-07-09T11:12:04.653Z,1.10
2017-07-09T11:14:32.522Z,1.23
2017-07-09T11:17:00.295Z,1.03
2017-07-09T11:19:28.778Z,1.30
2017-07-09T11:21:57.261Z,1.00
2017-07-09T11:24:25.043Z,1.33
2017-07-09T11:26:52.855Z,1.20
2017-07-09T11:29:20.745Z,1.20
2017-07-09T11:31:48.589Z,0.83
2017-07-09T11:34:16.354Z,1.10
2017-07-09T11:36:44.221Z,0.80
2017-07-09T11:39:11.996Z,1.90
2017-07-09T11:41:39.742Z,0.80
2017-07-09T11:44:07.513Z,1.03
2017-07-09T11:46:35.384Z,0.90
2017-07-09T11:49:03.141Z,1.07
2017-07-09T11:51:30.997Z,1.30
2017-07-09T11:53:58.897Z,0.80
2017-07-09T11:56:26.687Z,1.00
2017-07-09T11:58:55.446Z,0.83
2017-07-09T12:01:23.316Z,1.00
2017-07-09T12:03:51.176Z,1.00
2017-07-09T12:06:21.011Z,1.03
2017-07-09T12:08:48.811Z,0.90
2017-07-09T12:11:16.441Z,1.10
2017-07-09T12:13:44.899Z,0.90
2017-07-09T12:16:12.647Z,1.20
2017-07-09T12:18:40.305Z,1.13
2017-07-09T12:21:08.072Z,1.10
2017-07-09T12:23:35.717Z,1.20
2017-07-09T12:26:03.496Z,1.27
2017-07-09T12:28:31.261Z,1.60
2017-07-09T12:30:59.028Z,1.07
2017-07-09T12:33:26.711Z,0.93
2017-07-09T12:35:54.454Z,1.20
2017-07-09T12:38:24.517Z,1.20
2017-07-09T12:40:54.739Z,1.17
2017-07-09T12:43:24.509Z,1.07
2017-07-09T12:45:55.308Z,1.10
2017-07-09T12:48:25.724Z,1.13
2017-07-09T12:50:53.633Z,1.00
2017-07-09T12:53:21.317Z,1.03
2017-07-09T12:55:48.984Z,1.40
2017-07-09T12:58:16.720Z,1.33
2017-07-09T13:00:44.587Z,1.00
2017-07-09T13:03:12.267Z,1.00
2017-07-09T13:05:40.015Z,1.00
2017-07-09T13:08:07.675Z,1.00
2017-07-09T13:10:35.498Z,0.97
2017-07-09T13:13:04.024Z,0.80
2017-07-09T13:15:31.745Z,1.00
2017-07-09T13:17:59.552Z,1.63
2017-07-09T13:20:27.249Z,1.00
2017-07-09T13:22:55.797Z,1.17
2017-07-09T13:25:23.973Z,1.00
2017-07-09T13:27:51.671Z,1.33
2017-07-09T13:30:20.219Z,0.90
2017-07-09T13:32:47.982Z,1.40
2017-07-09T13:35:16.589Z,1.00
2017-07-09T13:37:44.242Z,1.30
2017-07-09T13:40:12.912Z,1.17
2017-07-09T13:42:40.780Z,1.47
2017-07-09T13:45:08.438Z,1.30
2017-07-09T13:47:36.206Z,1.20
2017-07-09T13:50:03.967Z,1.10
2017-07-09T13:52:31.653Z,1.10
2017-07-09T13:54:59.395Z,1.30
2017-07-09T13:57:27.027Z,1.10
2017-07-09T13:59:54.735Z,1.20
2017-07-09T14:02:22.482Z,1.33
2017-07-09T14:04:50.349Z,1.40
2017-07-09T14:07:18.113Z,1.80
2017-07-09T14:09:45.983Z,1.40
2017-07-09T14:12:13.663Z,1.30
2017-07-09T14:14:41.300Z,1.30
2017-07-09T14:17:09.068Z,1.10
2017-07-09T14:19:36.936Z,1.20
2017-07-09T14:22:04.817Z,1.20
2017-07-09T14:24:32.692Z,2.00
2017-07-09T14:27:00.654Z,2.10
2017-07-09T14:29:28.457Z,1.00
2017-07-09T14:31:56.382Z,1.50
2017-07-09T14:34:24.253Z,1.20
2017-07-09T14:36:52.133Z,1.27
2017-07-09T14:39:20.092Z,1.30
2017-07-09T14:41:47.959Z,1.60
2017-07-09T14:44:15.932Z,1.33
2017-07-09T14:46:43.793Z,1.70
2017-07-09T14:49:11.660Z,1.47
2017-07-09T14:51:39.624Z,1.60
2017-07-09T14:54:07.497Z,1.40
2017-07-09T14:56:35.464Z,1.60
2017-07-09T14:59:03.325Z,1.70
2017-07-09T15:01:31.307Z,1.90
2017-07-09T15:03:59.164Z,1.67
2017-07-09T15:06:27.033Z,1.43
2017-07-09T15:08:54.899Z,1.77
2017-07-09T15:11:22.744Z,1.43
2017-07-09T15:13:50.511Z,1.30
2017-07-09T15:16:18.275Z,1.70
2017-07-09T15:18:46.144Z,1.40
2017-07-09T15:21:13.906Z,1.40
2017-07-09T15:23:41.674Z,1.43
2017-07-09T15:26:09.434Z,1.83
2017-07-09T15:28:37.121Z,1.60
2017-07-09T15:31:04.961Z,1.10
2017-07-09T15:33:32.599Z,1.10
2017-07-09T15:36:00.388Z,1.30
2017-07-09T15:38:28.152Z,1.33
2017-07-09T15:40:55.837Z,1.13
2017-07-09T15:43:23.579Z,1.30
2017-07-09T15:45:51.349Z,1.47
2017-07-09T15:48:19.211Z,1.20
2017-07-09T15:50:46.983Z,1.10
2017-07-09T15:53:14.843Z,1.40
2017-07-09T15:55:42.475Z,1.60
2017-07-09T15:58:10.266Z,1.23
2017-07-09T16:00:37.958Z,1.40
2017-07-09T16:03:05.796Z,1.23
2017-07-09T16:05:33.475Z,1.40
2017-07-09T16:08:01.962Z,1.40
2017-07-09T16:10:29.804Z,1.80
2017-07-09T16:12:57.474Z,1.33
2017-07-09T16:15:25.333Z,1.20
2017-07-09T16:17:53.097Z,1.00
2017-07-09T16:20:20.797Z,1.27
2017-07-09T16:22:48.629Z,1.13
2017-07-09T16:25:16.303Z,1.27
2017-07-09T16:27:43.980Z,1.23
2017-07-09T16:30:11.713Z,1.20
2017-07-09T16:32:39.375Z,1.07
2017-07-09T16:35:07.060Z,1.30
2017-07-09T16:37:34.804Z,1.10
2017-07-09T16:40:02.570Z,1.03
2017-07-09T16:42:30.330Z,1.30
2017-07-09T16:44:58.091Z,1.20
2017-07-09T16:47:25.771Z,1.20
2017-07-09T16:49:53.519Z,1.60
2017-07-09T16:52:21.285Z,1.50
2017-07-09T16:54:48.963Z,1.40
2017-07-09T16:57:16.810Z,1.23
2017-07-09T16:59:44.575Z,1.33
2017-07-09T17:02:12.342Z,1.40
2017-07-09T17:04:40.029Z,1.30
2017-07-09T17:07:07.764Z,1.10
2017-07-09T17:09:35.530Z,1.50
2017-07-09T17:12:03.292Z,1.40
2017-07-09T17:14:30.980Z,1.23
2017-07-09T17:16:58.646Z,1.30
2017-07-09T17:19:26.404Z,1.60
2017-07-09T17:21:54.147Z,1.60
2017-07-09T17:24:22.035Z,1.50
2017-07-09T17:26:50.001Z,1.47
2017-07-09T17:29:17.872Z,1.40
2017-07-09T17:31:45.832Z,1.47
2017-07-09T17:34:13.704Z,1.20
2017-07-09T17:36:41.572Z,1.47
2017-07-09T17:39:09.541Z,1.60
2017-07-09T17:41:37.505Z,1.50
2017-07-09T17:44:05.487Z,1.43
2017-07-09T17:46:33.344Z,1.40
2017-07-09T17:49:01.315Z,1.60
2017-07-09T17:51:29.071Z,1.40
2017-07-09T17:53:56.936Z,1.57
2017-07-09T17:56:24.792Z,1.70
2017-07-09T17:58:52.559Z,1.53
2017-07-09T18:01:21.009Z,1.83
2017-07-09T18:03:48.906Z,1.47
2017-07-09T18:06:18.435Z,1.20
2017-07-09T18:08:46.862Z,1.63
2017-07-09T18:11:14.758Z,1.40
2017-07-09T18:13:42.743Z,1.57
2017-07-09T18:16:10.489Z,2.40
2017-07-09T18:18:38.301Z,1.33
2017-07-09T18:21:06.686Z,1.57
2017-07-09T18:23:34.496Z,1.60
2017-07-09T18:26:02.262Z,1.60
2017-07-09T18:28:30.028Z,1.67
2017-07-09T18:30:57.712Z,1.70
2017-07-09T18:33:25.454Z,1.30
2017-07-09T18:35:53.321Z,1.90
2017-07-09T18:38:21.092Z,1.90
2017-07-09T18:40:48.849Z,1.60
2017-07-09T18:43:16.535Z,1.60
2017-07-09T18:45:44.274Z,2.20
2017-07-09T18:48:12.143Z,1.50
2017-07-09T18:50:39.904Z,1.93
2017-07-09T18:53:07.572Z,1.70
2017-07-09T18:55:35.203Z,1.87
2017-07-09T18:58:02.994Z,1.50
2017-07-09T19:00:30.862Z,1.63
2017-07-09T19:02:58.631Z,1.50
2017-07-09T19:05:26.389Z,1.60
2017-07-09T19:07:54.152Z,1.60
2017-07-09T19:10:22.019Z,1.60
2017-07-09T19:12:49.705Z,1.50
2017-07-09T19:15:17.336Z,1.73
2017-07-09T19:17:45.028Z,1.50
2017-07-09T19:20:12.688Z,1.73
2017-07-09T19:22:40.537Z,1.90
2017-07-09T19:25:08.299Z,1.87
2017-07-09T19:27:36.166Z,1.53
2017-07-09T19:30:03.934Z,1.60
2017-07-09T19:32:31.697Z,2.63
2017-07-09T19:34:59.458Z,1.63
2017-07-09T19:37:27.100Z,1.63
2017-07-09T19:39:54.884Z,2.40
2017-07-09T19:42:22.650Z,2.30
2017-07-09T19:44:50.515Z,2.10
2017-07-09T19:47:18.143Z,2.20
2017-07-09T19:49:45.942Z,1.80
2017-07-09T19:52:13.705Z,1.53
2017-07-09T19:54:41.339Z,2.33
2017-07-09T19:57:09.047Z,1.50
2017-07-09T19:59:36.796Z,2.00
2017-07-09T20:02:04.659Z,1.40
2017-07-09T20:04:32.349Z,2.17
2017-07-09T20:07:00.086Z,2.00
2017-07-09T20:09:27.783Z,1.80
2017-07-09T20:11:56.179Z,2.00
2017-07-09T20:14:24.712Z,1.80
2017-07-09T20:16:52.587Z,1.87
2017-07-09T20:19:20.255Z,1.83
2017-07-09T20:21:48.105Z,1.90
2017-07-09T20:24:15.872Z,1.80
2017-07-09T20:26:43.736Z,1.50
2017-07-09T20:29:11.424Z,1.80
2017-07-09T20:31:39.160Z,2.13
2017-07-09T20:34:06.949Z,2.50
2017-07-09T20:36:34.690Z,1.90
2017-07-09T20:39:02.455Z,1.80
2017-07-09T20:41:30.220Z,1.53
2017-07-09T20:43:57.862Z,1.90
2017-07-09T20:46:25.565Z,1.90
2017-07-09T20:48:53.306Z,2.20
2017-07-09T20:51:20.980Z,2.20
2017-07-09T20:53:48.648Z,1.70
2017-07-09T20:56:16.395Z,1.90
2017-07-09T20:58:44.081Z,2.00
2017-07-09T21:01:11.819Z,2.20
2017-07-09T21:03:39.689Z,1.90
2017-07-09T21:06:07.450Z,2.00
2017-07-09T21:08:35.216Z,2.10
2017-07-09T21:11:02.980Z,2.00
2017-07-09T21:13:30.745Z,1.77
2017-07-09T21:15:58.510Z,1.70
2017-07-09T21:18:27.006Z,1.87
2017-07-09T21:20:54.874Z,1.73
2017-07-09T21:23:22.745Z,1.50
2017-07-09T21:25:50.487Z,2.00
2017-07-09T21:28:18.285Z,1.83
2017-07-09T21:30:46.836Z,2.07
2017-07-09T21:33:14.701Z,1.90
2017-07-09T21:35:42.467Z,2.10
2017-07-09T21:38:10.174Z,2.80
2017-07-09T21:40:38.570Z,2.20
2017-07-09T21:43:06.303Z,1.97
2017-07-09T21:45:34.855Z,2.17
2017-07-09T21:48:02.532Z,2.30
2017-07-09T21:50:30.381Z,2.10
2017-07-09T21:52:58.039Z,2.00
2017-07-09T21:55:25.944Z,1.80
2017-07-09T21:57:54.390Z,1.90
2017-07-09T22:00:22.160Z,1.90
2017-07-09T22:02:50.024Z,2.10
2017-07-09T22:05:17.655Z,2.20
2017-07-09T22:07:45.363Z,2.33
2017-07-09T22:10:13.114Z,2.20
2017-07-09T22:12:40.790Z,2.50
2017-07-09T22:15:08.641Z,1.90
2017-07-09T22:17:36.301Z,2.33
2017-07-09T22:22:35.822Z,2.07
2017-07-09T22:25:03.507Z,1.70
2017-07-09T22:27:31.455Z,1.80
2017-07-09T22:29:59.222Z,1.93
2017-07-09T22:32:27.017Z,2.17
2017-07-09T22:34:55.489Z,2.13
2017-07-09T22:37:23.119Z,1.70
2017-07-09T22:39:50.889Z,2.10
2017-07-09T22:42:18.561Z,2.13
2017-07-09T22:44:46.341Z,1.50
2017-07-09T22:47:14.081Z,1.77
2017-07-09T22:49:41.950Z,1.67
2017-07-09T22:52:09.712Z,2.10
2017-07-09T22:54:37.681Z,2.00
2017-07-09T22:57:06.268Z,1.83
2017-07-09T22:59:34.134Z,2.00
2017-07-09T23:02:02.716Z,1.87
2017-07-09T23:04:30.400Z,1.93
2017-07-09T23:06:58.142Z,1.80
2017-07-09T23:09:25.909Z,1.70
2017-07-09T23:11:53.669Z,2.30
2017-07-09T23:14:21.347Z,1.90
2017-07-09T23:16:49.095Z,1.80
2017-07-09T23:19:16.861Z,2.07
2017-07-09T23:21:44.623Z,1.83
2017-07-09T23:24:12.390Z,1.80
2017-07-09T23:26:40.067Z,1.80
2017-07-09T23:29:07.817Z,2.10
2017-07-09T23:31:35.581Z,2.00
2017-07-09T23:34:03.364Z,1.87
2017-07-09T23:36:31.212Z,1.77
2017-07-09T23:38:58.884Z,1.90
2017-07-09T23:41:26.520Z,2.10
2017-07-09T23:43:54.413Z,2.00
2017-07-09T23:46:22.164Z,1.90
2017-07-09T23:48:49.931Z,1.90
2017-07-09T23:51:17.798Z,1.87
2017-07-09T23:53:45.573Z,1.90
2017-07-09T23:56:13.427Z,2.13
2017-07-09T23:58:41.071Z,1.97
